Time;durP1;ratioP1;P1;durP2;ratioP2;P2;SDS_P1;SDS_P2;PMS_P1;PMS_P2;Temp;Humidity;BMP_temperature;BMP_pressure;BME280_temperature;BME280_humidity;BME280_pressure;Samples;Min_cycle;Max_cycle;Signal;HPM_P1;HPM_P2
2021/05/17 00:02:04;;;;;;;1.73;0.70;;;;;;;8.14;77.49;94491.31;5076562;28;20236;-79
2021/05/17 00:04:38;;;;;;;1.97;0.70;;;;;;;8.09;78.11;94490.97;5057971;28;20556;-78
2021/05/17 00:07:06;;;;;;;2.50;0.70;;;;;;;8.10;78.28;94497.75;5075082;28;20176;-79
2021/05/17 00:09:31;;;;;;;3.37;0.70;;;;;;;8.11;78.18;94507.13;5075047;28;20180;-79
2021/05/17 00:11:57;;;;;;;2.27;0.60;;;;;;;8.15;78.30;94510.22;5074395;28;20560;-80
2021/05/17 00:14:24;;;;;;;3.10;0.97;;;;;;;8.14;78.35;94504.25;5075121;28;20209;-79
2021/05/17 00:16:49;;;;;;;4.20;0.90;;;;;;;8.14;77.76;94513.78;5075094;28;20181;-79
2021/05/17 00:19:15;;;;;;;1.40;0.67;;;;;;;8.10;77.93;94517.66;5075454;28;20580;-80
2021/05/17 00:21:41;;;;;;;3.33;0.87;;;;;;;8.13;78.14;94510.41;5041302;28;20213;-78
2021/05/17 00:24:08;;;;;;;4.20;0.60;;;;;;;8.07;78.41;94510.22;5076949;28;20188;-79
2021/05/17 00:26:33;;;;;;;1.23;0.63;;;;;;;8.06;78.13;94509.41;5075522;28;20185;-81
2021/05/17 00:28:59;;;;;;;3.67;0.90;;;;;;;8.06;78.09;94509.41;5058225;28;20177;-77
2021/05/17 00:31:24;;;;;;;2.00;0.77;;;;;;;8.05;78.16;94505.19;5074968;28;20215;-78
2021/05/17 00:33:50;;;;;;;1.70;0.80;;;;;;;8.08;78.51;94509.25;5058432;28;20215;-79
2021/05/17 00:36:16;;;;;;;2.03;0.80;;;;;;;8.05;77.99;94510.38;5058612;28;20177;-78
2021/05/17 00:38:42;;;;;;;4.80;1.30;;;;;;;8.09;77.84;94503.09;5057993;28;20181;-79
2021/05/17 00:41:07;;;;;;;3.90;0.80;;;;;;;8.06;78.17;94503.44;5057913;28;20201;-77
2021/05/17 00:43:37;;;;;;;2.70;0.70;;;;;;;8.03;77.92;94512.28;5057858;28;20177;-78
2021/05/17 00:46:08;;;;;;;2.03;0.80;;;;;;;8.10;76.42;94507.31;5058291;28;20177;-79
2021/05/17 00:48:38;;;;;;;3.10;0.60;;;;;;;8.04;76.24;94502.75;5074500;28;20176;-78
2021/05/17 00:51:05;;;;;;;1.73;0.43;;;;;;;8.03;76.13;94511.47;5074159;28;20593;-77
2021/05/17 00:53:33;;;;;;;1.47;0.50;;;;;;;7.96;77.09;94500.97;5075878;28;20177;-78
2021/05/17 00:55:59;;;;;;;1.77;0.60;;;;;;;7.95;76.79;94504.50;5074119;28;20608;-78
2021/05/17 00:58:24;;;;;;;0.57;0.57;;;;;;;7.99;76.37;94503.22;5074087;28;20181;-78
2021/05/17 01:00:50;;;;;;;4.00;0.73;;;;;;;7.90;76.94;94504.19;5073561;28;20237;-77
2021/05/17 01:03:15;;;;;;;1.83;0.70;;;;;;;7.85;76.39;94498.66;5073463;28;20247;-81
2021/05/17 01:05:41;;;;;;;2.40;0.50;;;;;;;7.86;76.60;94505.44;5057521;28;20315;-80
2021/05/17 01:08:09;;;;;;;2.63;0.80;;;;;;;7.84;77.47;94500.44;5074517;28;20173;-80
2021/05/17 01:10:40;;;;;;;1.77;0.60;;;;;;;7.80;77.05;94498.31;5057189;28;20177;-80
2021/05/17 01:13:06;;;;;;;2.00;0.53;;;;;;;7.76;76.99;94486.66;5074146;28;20330;-78
2021/05/17 01:15:32;;;;;;;3.00;1.00;;;;;;;7.76;77.21;94491.84;5074326;28;20215;-77
2021/05/17 01:17:58;;;;;;;3.63;0.57;;;;;;;7.63;77.67;94487.13;5074667;28;20640;-78
2021/05/17 01:20:27;;;;;;;2.07;0.60;;;;;;;7.63;77.35;94487.94;5074936;28;20173;-78
2021/05/17 01:23:01;;;;;;;2.33;0.73;;;;;;;7.61;77.20;94486.47;5074110;28;20235;-78
2021/05/17 01:25:28;;;;;;;2.00;0.63;;;;;;;7.62;77.66;94482.91;5042226;28;20188;-78
2021/05/17 01:27:54;;;;;;;2.33;0.60;;;;;;;7.63;77.69;94487.13;5074068;28;20192;-78
2021/05/17 01:30:21;;;;;;;4.20;0.80;;;;;;;7.64;76.87;94479.22;5074049;28;20177;-79
2021/05/17 01:32:47;;;;;;;3.83;0.70;;;;;;;7.64;77.07;94486.97;5073979;28;20232;-79
2021/05/17 01:35:13;;;;;;;1.50;0.80;;;;;;;7.61;77.48;94491.63;5074370;28;20194;-78
2021/05/17 01:37:40;;;;;;;1.87;0.97;;;;;;;7.58;78.19;94497.09;5073526;28;20247;-77
2021/05/17 01:40:10;;;;;;;3.63;0.90;;;;;;;7.52;78.91;94490.78;5074171;28;20686;-78
2021/05/17 01:42:40;;;;;;;3.67;0.87;;;;;;;7.52;79.06;94490.78;5073330;28;20592;-78
2021/05/17 01:45:07;;;;;;;1.43;0.63;;;;;;;7.42;80.50;94494.44;5075510;28;20590;-80
2021/05/17 01:47:37;;;;;;;3.17;0.73;;;;;;;7.42;79.71;94482.34;5075687;28;20188;-80
2021/05/17 01:50:03;;;;;;;2.70;0.70;;;;;;;7.43;79.57;94494.31;5057137;28;20211;-80
2021/05/17 01:52:34;;;;;;;1.73;0.60;;;;;;;7.47;78.65;94487.03;5074853;28;20213;-79
2021/05/17 01:55:00;;;;;;;1.83;0.40;;;;;;;7.48;78.73;94489.47;5057078;28;20180;-80
2021/05/17 01:57:25;;;;;;;2.90;0.80;;;;;;;7.43;79.14;94494.31;5073767;28;20173;-77
2021/05/17 01:59:50;;;;;;;2.40;0.60;;;;;;;7.41;79.02;94478.13;5056686;28;20184;-81
2021/05/17 02:02:16;;;;;;;1.77;0.50;;;;;;;7.31;79.04;94491.16;5073395;28;20263;-79
2021/05/17 02:04:41;;;;;;;3.87;0.63;;;;;;;7.31;79.00;94496.31;5072745;28;20282;-79
2021/05/17 02:07:07;;;;;;;1.93;0.60;;;;;;;7.30;78.67;94492.13;5056357;28;20180;-80
2021/05/17 02:09:34;;;;;;;2.33;0.50;;;;;;;7.31;78.61;94503.25;5072787;28;20181;-78
2021/05/17 02:12:02;;;;;;;0.80;0.50;;;;;;;7.39;77.96;94483.44;5056424;28;20610;-79
2021/05/17 02:14:28;;;;;;;0.50;0.50;;;;;;;7.33;78.42;94491.00;5073353;28;20177;-79
2021/05/17 02:16:53;;;;;;;4.97;0.50;;;;;;;7.44;77.55;94487.34;5073412;28;20331;-80
2021/05/17 02:19:24;;;;;;;1.50;0.50;;;;;;;7.42;77.27;94484.09;5072940;28;20181;-80
2021/05/17 02:21:50;;;;;;;1.73;0.40;;;;;;;7.33;77.48;94491.84;5072414;28;20448;-81
2021/05/17 02:24:15;;;;;;;1.90;0.43;;;;;;;7.36;77.46;94483.75;5056086;28;20275;-78
2021/05/17 02:26:41;;;;;;;0.67;0.30;;;;;;;7.35;77.07;94499.41;5074357;28;20259;-79
2021/05/17 02:29:08;;;;;;;1.60;0.60;;;;;;;7.28;78.09;94495.81;5072507;28;20184;-79
2021/05/17 02:31:33;;;;;;;2.53;0.50;;;;;;;7.30;77.94;94491.31;5072444;28;20189;-78
2021/05/17 02:34:01;;;;;;;0.93;0.53;;;;;;;7.27;78.48;94495.03;5072658;28;20235;-77
2021/05/17 02:36:27;;;;;;;4.10;0.50;;;;;;;7.32;78.75;94505.69;5055806;28;20632;-78
2021/05/17 02:38:52;;;;;;;1.37;0.50;;;;;;;7.37;78.18;94500.88;5071897;28;20184;-81
2021/05/17 02:41:20;;;;;;;0.70;0.30;;;;;;;7.32;77.62;94503.09;5072021;28;20308;-81
2021/05/17 02:43:46;;;;;;;0.77;0.40;;;;;;;7.31;77.80;94509.22;5073733;28;20183;-80
2021/05/17 02:46:11;;;;;;;1.33;0.60;;;;;;;7.29;78.03;94500.03;5056298;28;20306;-81
2021/05/17 02:48:41;;;;;;;0.50;0.40;;;;;;;7.39;77.66;94511.84;5056579;28;20177;-80
2021/05/17 02:51:09;;;;;;;1.73;0.40;;;;;;;7.35;78.10;94502.00;5055525;28;20169;-81
2021/05/17 02:53:37;;;;;;;0.63;0.50;;;;;;;7.30;78.72;94496.47;5071941;28;20547;-80
2021/05/17 02:56:17;;;;;;;1.17;0.43;;;;;;;7.31;78.79;94505.84;5073317;28;20169;-80
2021/05/17 02:58:45;;;;;;;1.13;0.40;;;;;;;7.31;78.77;94505.84;5072158;28;20181;-79
2021/05/17 03:01:14;;;;;;;2.23;0.90;;;;;;;7.30;78.93;94514.56;5071520;28;20197;-78
2021/05/17 03:03:46;;;;;;;1.97;0.50;;;;;;;7.29;78.26;94515.53;5073079;28;20632;-80
2021/05/17 03:06:18;;;;;;;3.07;0.53;;;;;;;7.21;78.30;94513.69;5071914;28;20178;-79
2021/05/17 03:08:54;;;;;;;1.17;0.60;;;;;;;7.16;78.70;94504.81;5055625;28;20226;-81
2021/05/17 03:11:21;;;;;;;0.60;0.40;;;;;;;7.17;78.80;94511.59;5071794;28;20177;-81
2021/05/17 03:13:48;;;;;;;2.23;0.60;;;;;;;7.14;78.48;94501.53;5055288;28;20177;-77
2021/05/17 03:16:14;;;;;;;0.30;0.30;;;;;;;7.17;78.42;94502.06;5073897;28;20533;-79
2021/05/17 03:18:39;;;;;;;1.03;0.50;;;;;;;7.09;78.74;94504.59;5076304;28;20173;-78
2021/05/17 03:21:05;;;;;;;1.80;0.50;;;;;;;7.09;78.78;94505.41;5075670;28;20262;-78
2021/05/17 03:23:30;;;;;;;0.50;0.40;;;;;;;7.10;78.87;94512.19;5075543;28;20169;-77
2021/05/17 03:25:57;;;;;;;1.23;0.60;;;;;;;7.23;78.41;94513.53;5076093;28;20519;-79
2021/05/17 03:28:23;;;;;;;2.97;0.60;;;;;;;7.15;79.00;94514.28;5075427;28;20663;-77
2021/05/17 03:30:48;;;;;;;1.13;0.50;;;;;;;7.17;78.98;94511.59;5075197;28;20256;-78
2021/05/17 03:33:13;;;;;;;1.77;0.60;;;;;;;7.17;79.12;94516.75;5075118;28;20193;-78
2021/05/17 03:35:38;;;;;;;2.23;0.67;;;;;;;7.15;78.67;94514.28;5075477;28;20197;-78
2021/05/17 03:38:04;;;;;;;2.07;0.60;;;;;;;7.18;78.26;94513.19;5058315;28;20215;-78
2021/05/17 03:40:29;;;;;;;1.40;0.90;;;;;;;7.18;78.41;94521.75;5076591;28;20214;-80
2021/05/17 03:42:55;;;;;;;1.90;0.50;;;;;;;7.15;78.46;94522.03;5075302;28;20227;-80
2021/05/17 03:45:20;;;;;;;4.07;0.73;;;;;;;7.19;78.83;94527.72;5076662;28;20173;-79
2021/05/17 03:47:45;;;;;;;2.20;0.60;;;;;;;7.18;79.10;94536.44;5076436;28;20185;-81
2021/05/17 03:50:12;;;;;;;1.73;0.63;;;;;;;7.17;78.72;94538.22;5075609;28;20203;-81
2021/05/17 03:52:38;;;;;;;0.83;0.40;;;;;;;7.24;78.52;94530.66;5058488;28;20236;-80
2021/05/17 03:55:04;;;;;;;3.97;0.70;;;;;;;7.20;78.56;94535.31;5076781;28;20230;-76
2021/05/17 03:57:29;;;;;;;1.10;0.60;;;;;;;7.17;78.76;94538.22;5058238;28;20177;-77
2021/05/17 03:59:55;;;;;;;1.83;0.60;;;;;;;7.09;78.60;94541.53;5075271;28;20337;-78
2021/05/17 04:02:22;;;;;;;0.83;0.30;;;;;;;7.07;78.50;94543.47;5074491;28;20264;-78
2021/05/17 04:05:17;;;;;;;1.90;0.50;;;;;;;7.13;78.45;94546.41;5074407;28;20169;-81
2021/05/17 04:15:50;;;;;;;0.63;0.50;;;;;;;7.12;78.51;94553.34;5075342;28;20567;-79
2021/05/17 04:18:16;;;;;;;0.93;0.53;;;;;;;7.09;78.54;94553.63;5075324;28;20184;-78
2021/05/17 04:20:43;;;;;;;1.37;0.47;;;;;;;7.13;77.97;94559.31;5057919;28;20174;-79
2021/05/17 04:23:08;;;;;;;1.33;0.77;;;;;;;7.07;78.65;94547.81;5074279;28;20197;-78
2021/05/17 04:25:33;;;;;;;1.73;0.60;;;;;;;7.05;79.05;94553.13;5074272;28;20205;-79
2021/05/17 04:27:59;;;;;;;3.70;0.60;;;;;;;7.04;78.30;94561.00;5074040;28;20181;-78
2021/05/17 04:30:24;;;;;;;1.53;0.60;;;;;;;7.14;78.12;94563.50;5074091;28;20200;-79
2021/05/17 04:32:50;;;;;;;0.77;0.50;;;;;;;7.20;77.73;94562.91;5074325;28;20200;-78
2021/05/17 04:35:15;;;;;;;2.53;0.87;;;;;;;7.18;76.82;94564.84;5074794;28;20180;-80
2021/05/17 04:37:40;;;;;;;1.83;0.73;;;;;;;7.28;76.50;94565.56;5074742;28;20222;-78
2021/05/17 04:40:07;;;;;;;1.97;0.70;;;;;;;7.42;75.92;94571.91;5057932;28;20184;-80
2021/05/17 04:42:32;;;;;;;2.27;0.90;;;;;;;7.49;76.15;94578.91;5057915;28;20684;-79
2021/05/17 04:44:58;;;;;;;2.73;0.50;;;;;;;7.52;75.82;94572.66;5074703;28;20185;-78
2021/05/17 04:47:23;;;;;;;2.80;0.77;;;;;;;7.57;75.93;94575.56;5074726;28;20177;-78
2021/05/17 04:49:49;;;;;;;3.60;0.40;;;;;;;7.56;75.21;94577.34;5058043;28;20185;-79
2021/05/17 04:52:14;;;;;;;1.40;0.40;;;;;;;7.77;74.21;94583.91;5074871;28;20231;-79
2021/05/17 04:54:39;;;;;;;1.90;0.60;;;;;;;8.23;73.83;94578.31;5075029;28;20189;-79
2021/05/17 04:57:05;;;;;;;5.10;0.60;;;;;;;8.40;72.31;94584.38;5074418;28;20288;-79
2021/05/17 04:59:30;;;;;;;1.70;0.33;;;;;;;8.61;71.87;94576.16;5074547;28;20181;-80
2021/05/17 05:01:55;;;;;;;2.63;0.70;;;;;;;8.75;71.75;94572.97;5073679;28;20303;-79
2021/05/17 05:04:21;;;;;;;5.00;0.70;;;;;;;8.39;72.87;94572.41;5073841;28;20189;-79
2021/05/17 05:06:46;;;;;;;1.87;0.57;;;;;;;8.17;72.80;94576.34;5075445;28;20235;-78
2021/05/17 05:09:11;;;;;;;0.60;0.50;;;;;;;8.01;72.97;94583.22;5073540;28;20185;-79
2021/05/17 05:11:37;;;;;;;1.43;0.60;;;;;;;7.89;73.19;94587.88;5072289;28;20201;-80
2021/05/17 05:14:03;;;;;;;2.00;0.47;;;;;;;7.79;73.84;94587.16;5051960;28;20193;-78
2021/05/17 05:16:28;;;;;;;1.57;0.60;;;;;;;7.60;74.59;94585.63;5059902;28;20542;-77
2021/05/17 05:18:53;;;;;;;2.40;0.70;;;;;;;7.77;74.71;94584.72;5064077;28;20181;-79
2021/05/17 05:21:19;;;;;;;1.53;0.60;;;;;;;7.82;74.48;94585.06;5071576;28;20272;-79
2021/05/17 05:23:47;;;;;;;4.90;0.80;;;;;;;7.79;74.58;94597.50;5070129;28;20181;-79
2021/05/17 05:31:55;;;;;;;1.67;0.70;;;;;;;7.56;75.95;94604.97;5029842;28;20266;-78
2021/05/17 05:34:23;;;;;;;1.43;0.63;;;;;;;7.52;76.23;94607.03;5053840;28;20180;-79
2021/05/17 05:36:48;;;;;;;2.30;0.57;;;;;;;7.44;75.93;94601.00;5040780;28;20213;-80
2021/05/17 05:39:13;;;;;;;2.43;0.50;;;;;;;7.54;76.29;94617.22;5057254;28;20181;-80
2021/05/17 05:41:39;;;;;;;3.17;0.60;;;;;;;7.51;76.76;94613.19;5040394;28;20665;-80
2021/05/17 05:44:05;;;;;;;1.63;0.57;;;;;;;7.58;76.70;94624.50;5052945;28;20182;-80
2021/05/17 05:46:30;;;;;;;0.80;0.50;;;;;;;7.61;76.90;94624.22;5069028;28;20694;-79
2021/05/17 05:48:57;;;;;;;2.87;0.83;;;;;;;7.60;77.73;94626.97;5067429;28;20205;-79
2021/05/17 05:51:25;;;;;;;1.33;0.50;;;;;;;7.64;78.25;94617.94;5053870;28;20264;-78
2021/05/17 05:53:51;;;;;;;2.67;0.70;;;;;;;7.66;78.17;94624.56;5057540;28;20535;-78
2021/05/17 05:56:17;;;;;;;1.17;0.40;;;;;;;7.64;78.81;94626.50;5055319;28;20188;-78
2021/05/17 05:58:44;;;;;;;3.67;1.23;;;;;;;7.73;79.00;94627.34;5045790;28;20189;-79
2021/05/17 06:01:10;;;;;;;3.30;0.83;;;;;;;7.66;78.85;94634.09;5057105;28;21294;-79
2021/05/17 06:03:36;;;;;;;1.37;1.03;;;;;;;7.62;79.26;94635.38;5059751;28;20567;-78
2021/05/17 06:06:01;;;;;;;2.30;1.20;;;;;;;7.75;79.03;94642.69;5044247;28;20178;-80
2021/05/17 06:08:27;;;;;;;3.33;1.10;;;;;;;7.70;79.04;94652.69;5068781;28;20553;-80
2021/05/17 06:10:53;;;;;;;0.40;0.33;;;;;;;7.55;78.62;94653.25;5042436;28;20717;-79
2021/05/17 06:13:19;;;;;;;2.17;0.50;;;;;;;7.83;78.47;94658.25;5063243;28;20278;-79
2021/05/17 06:15:44;;;;;;;2.53;1.00;;;;;;;7.94;79.04;94660.56;5058280;28;20585;-79
2021/05/17 06:18:12;;;;;;;0.97;0.63;;;;;;;7.89;79.06;94662.81;5056733;28;20240;-80
2021/05/17 06:20:38;;;;;;;2.07;0.70;;;;;;;7.83;78.12;94666.00;5049786;28;20551;-81
2021/05/17 06:23:03;;;;;;;1.90;0.90;;;;;;;8.10;77.22;94662.44;5056499;28;20209;-80
2021/05/17 06:25:29;;;;;;;0.67;0.40;;;;;;;8.33;75.33;94666.13;5061979;28;20238;-80
2021/05/17 06:27:55;;;;;;;1.07;0.70;;;;;;;8.40;74.46;94666.34;5060007;28;20249;-80
2021/05/17 06:30:21;;;;;;;2.50;0.50;;;;;;;8.66;73.85;94667.09;5069353;28;20184;-80
2021/05/17 06:32:48;;;;;;;1.17;0.77;;;;;;;8.53;73.34;94669.31;5056503;28;20303;-79
2021/05/17 06:35:15;;;;;;;0.53;0.40;;;;;;;8.43;72.97;94676.38;5037141;28;20198;-79
2021/05/17 06:37:41;;;;;;;0.90;0.50;;;;;;;8.10;73.41;94671.00;5044024;28;20197;-78
2021/05/17 06:40:07;;;;;;;0.20;0.20;;;;;;;8.11;72.73;94670.06;5037819;28;20185;-78
2021/05/17 06:42:33;;;;;;;0.77;0.20;;;;;;;7.98;74.33;94674.84;5051716;28;20731;-78
2021/05/17 06:44:58;;;;;;;0.93;0.70;;;;;;;7.75;74.12;94678.88;5052374;28;20174;-78
2021/05/17 06:47:24;;;;;;;0.60;0.30;;;;;;;7.88;74.48;94682.69;5061947;28;20174;-78
2021/05/17 06:49:49;;;;;;;2.03;0.40;;;;;;;7.98;74.56;94681.78;5055571;28;20181;-78
2021/05/17 06:52:15;;;;;;;0.93;0.47;;;;;;;8.08;73.58;94680.72;5060874;28;20327;-79
2021/05/17 06:54:43;;;;;;;2.03;0.50;;;;;;;8.12;74.46;94681.19;5069570;28;20170;-78
2021/05/17 06:57:23;;;;;;;1.63;0.40;;;;;;;8.27;73.37;94682.25;5065913;28;20206;-77
2021/05/17 06:59:55;;;;;;;3.13;0.70;;;;;;;8.78;73.04;94681.34;5061723;28;20213;-78
2021/05/17 07:02:22;;;;;;;1.07;0.50;;;;;;;9.32;70.11;94674.00;5064327;28;20267;-78
2021/05/17 07:04:48;;;;;;;1.10;0.50;;;;;;;9.56;69.53;94680.19;5044149;28;20203;-78
2021/05/17 07:07:15;;;;;;;0.80;0.50;;;;;;;9.99;67.17;94680.78;5062335;28;20260;-78
2021/05/17 07:12:25;;;;;;;1.70;0.57;;;;;;;11.84;61.87;94687.03;5057122;28;20225;-79
2021/05/17 07:14:50;;;;;;;2.27;0.40;;;;;;;12.04;59.68;94685.53;5050331;28;20177;-78
2021/05/17 07:17:16;;;;;;;4.40;0.70;;;;;;;12.22;61.42;94687.00;5072785;28;20207;-78
2021/05/17 07:19:42;;;;;;;1.60;0.60;;;;;;;12.87;57.66;94687.03;5072434;28;20177;-78
2021/05/17 07:24:51;;;;;;;5.17;0.90;;;;;;;13.43;54.41;94696.91;5059250;28;20192;-78
2021/05/17 07:27:17;;;;;;;3.60;1.60;;;;;;;13.62;54.79;94690.28;5073328;28;20189;-79
2021/05/17 07:29:43;;;;;;;1.53;0.50;;;;;;;12.17;58.14;94700.53;5049354;28;20186;-79
2021/05/17 07:32:10;;;;;;;6.10;5.20;;;;;;;12.21;59.08;94701.81;5060646;28;20553;-79
2021/05/17 07:34:36;;;;;;;2.10;0.90;;;;;;;11.29;60.91;94711.44;5069873;28;20197;-78
2021/05/17 07:37:03;;;;;;;2.53;0.70;;;;;;;10.90;62.30;94698.50;5060931;28;20652;-78
2021/05/17 07:39:29;;;;;;;1.33;0.60;;;;;;;11.59;59.24;94708.00;5038136;28;20178;-78
2021/05/17 07:41:54;;;;;;;1.17;0.50;;;;;;;11.34;61.03;94709.94;5060048;28;20235;-78
2021/05/17 07:44:20;;;;;;;3.00;0.90;;;;;;;12.36;57.45;94714.81;5062956;28;20188;-77
2021/05/17 07:46:45;;;;;;;2.13;0.70;;;;;;;12.46;57.52;94715.38;5065254;28;20189;-78
2021/05/17 07:49:13;;;;;;;1.23;0.60;;;;;;;12.09;58.68;94711.81;5040698;28;20610;-78
2021/05/17 07:51:42;;;;;;;3.67;0.60;;;;;;;12.72;57.16;94709.69;5048836;28;20209;-79
2021/05/17 07:54:07;;;;;;;1.63;0.50;;;;;;;12.94;57.09;94711.38;5058223;28;20216;-78
2021/05/17 07:56:33;;;;;;;1.67;0.60;;;;;;;12.53;56.13;94713.66;5069471;28;20190;-78
2021/05/17 07:58:58;;;;;;;1.80;0.40;;;;;;;12.98;56.40;94714.41;5071962;28;20173;-78
2021/05/17 08:01:24;;;;;;;2.40;0.70;;;;;;;12.74;55.66;94708.53;5049242;28;20241;-79
2021/05/17 08:03:50;;;;;;;5.07;1.17;;;;;;;13.41;54.66;94723.16;5060082;28;20668;-78
2021/05/17 08:06:16;;;;;;;2.47;1.00;;;;;;;13.05;53.95;94705.69;5053825;28;20188;-75
2021/05/17 08:08:41;;;;;;;2.03;0.60;;;;;;;12.53;55.18;94702.44;5065053;28;20239;-79
2021/05/17 08:11:06;;;;;;;2.87;0.67;;;;;;;12.11;58.08;94706.47;5060896;28;20181;-78
2021/05/17 08:13:32;;;;;;;3.17;0.70;;;;;;;12.02;56.48;94703.13;5067695;28;20205;-79
2021/05/17 08:15:57;;;;;;;3.87;1.03;;;;;;;12.60;56.60;94709.34;5069931;28;20181;-78
2021/05/17 08:18:22;;;;;;;1.60;0.60;;;;;;;12.76;56.11;94711.78;5063081;28;20230;-79
2021/05/17 08:20:48;;;;;;;4.00;0.50;;;;;;;12.21;57.17;94711.41;5070009;28;20181;-79
2021/05/17 08:23:16;;;;;;;3.00;0.70;;;;;;;12.54;57.24;94707.44;5064894;28;20205;-78
2021/05/17 08:25:43;;;;;;;2.03;0.40;;;;;;;11.61;57.90;94706.03;5054262;28;20555;-78
2021/05/17 08:28:08;;;;;;;2.20;0.70;;;;;;;11.86;58.09;94709.28;5051770;28;20235;-78
2021/05/17 08:30:41;;;;;;;2.07;0.60;;;;;;;11.53;59.07;94716.47;5056098;28;20618;-78
2021/05/17 08:33:06;;;;;;;2.43;1.17;;;;;;;11.84;58.75;94724.25;5058005;28;20209;-79
2021/05/17 08:35:32;;;;;;;2.07;0.33;;;;;;;11.99;57.51;94723.47;5054094;28;20553;-79
2021/05/17 08:37:57;;;;;;;2.00;0.70;;;;;;;11.96;58.43;94721.22;5066470;28;20185;-77
2021/05/17 08:40:25;;;;;;;1.70;0.50;;;;;;;11.84;58.17;94715.66;5056012;28;20185;-80
2021/05/17 08:42:53;;;;;;;1.73;0.60;;;;;;;11.39;58.38;94727.63;5070185;28;20205;-79
2021/05/17 08:45:18;;;;;;;0.73;0.50;;;;;;;11.65;58.39;94727.28;5054099;28;20186;-78
2021/05/17 08:47:44;;;;;;;0.73;0.43;;;;;;;11.46;57.65;94728.56;5065704;28;20196;-77
2021/05/17 08:50:09;;;;;;;2.00;0.40;;;;;;;11.96;57.92;94736.84;5055549;28;20190;-77
2021/05/17 08:52:38;;;;;;;2.53;0.60;;;;;;;12.12;57.13;94734.91;5052538;28;20311;-77
2021/05/17 08:55:07;;;;;;;1.33;0.70;;;;;;;12.00;57.32;94738.91;5053010;28;20213;-77
2021/05/17 08:57:32;;;;;;;2.70;0.60;;;;;;;12.30;56.15;94744.19;5046638;28;20193;-77
2021/05/17 08:59:57;;;;;;;1.33;0.33;;;;;;;12.27;57.09;94736.72;5069275;28;20246;-77
2021/05/17 09:02:23;;;;;;;2.37;0.60;;;;;;;12.50;56.55;94736.66;5053111;28;20217;-77
2021/05/17 09:05:07;;;;;;;1.73;0.50;;;;;;;12.71;56.82;94737.53;5053299;28;20189;-77
2021/05/17 09:07:39;;;;;;;1.03;0.40;;;;;;;12.60;56.03;94745.81;5062809;28;20295;-77
2021/05/17 09:10:15;;;;;;;1.80;0.40;;;;;;;12.12;57.20;94742.72;5049861;28;20560;-76
2021/05/17 09:12:54;;;;;;;5.70;0.70;;;;;;;12.39;56.88;94741.31;5044352;28;20198;-76
2021/05/17 09:15:39;;;;;;;3.47;0.77;;;;;;;12.59;57.00;94735.56;5053062;28;20177;-79
2021/05/17 09:18:07;;;;;;;1.50;0.50;;;;;;;12.22;56.78;94741.66;5066924;28;20234;-77
2021/05/17 09:20:34;;;;;;;1.43;0.47;;;;;;;11.93;57.56;94738.00;5057962;28;20331;-77
2021/05/17 09:23:20;;;;;;;0.90;0.30;;;;;;;12.00;57.28;94738.91;5041557;28;20304;-77
2021/05/17 09:26:10;;;;;;;0.63;0.30;;;;;;;11.98;55.27;94732.25;5058779;28;20518;-76
2021/05/17 09:28:46;;;;;;;1.63;0.40;;;;;;;12.05;55.79;94728.78;5047303;28;20190;-77
2021/05/17 09:31:17;;;;;;;1.33;0.30;;;;;;;12.10;54.92;94736.03;5067850;28;20243;-78
2021/05/17 09:33:46;;;;;;;0.83;0.30;;;;;;;12.01;55.01;94726.69;5069177;28;20968;-78
2021/05/17 09:36:31;;;;;;;2.17;0.30;;;;;;;12.14;55.15;94732.13;5062244;28;20599;-77
2021/05/17 09:39:15;;;;;;;1.50;0.40;;;;;;;11.75;55.98;94734.84;5045773;28;20267;-76
2021/05/17 09:41:43;;;;;;;1.00;0.40;;;;;;;11.48;56.62;94733.56;5065944;28;20217;-77
2021/05/17 09:44:10;;;;;;;1.03;0.40;;;;;;;11.59;56.33;94736.59;5069483;28;20190;-78
2021/05/17 09:46:54;;;;;;;1.37;0.47;;;;;;;11.87;55.14;94741.28;5068739;28;20273;-77
2021/05/17 09:49:27;;;;;;;0.93;0.37;;;;;;;12.29;55.10;94738.16;5051991;28;20250;-78
2021/05/17 09:52:21;;;;;;;1.40;0.47;;;;;;;12.39;54.54;94740.50;5063174;28;20213;-77
2021/05/17 09:54:57;;;;;;;0.90;0.40;;;;;;;11.89;54.59;94734.13;5058848;28;20185;-79
2021/05/17 09:57:42;;;;;;;1.43;0.40;;;;;;;12.15;54.53;94734.53;5070966;28;20177;-78
2021/05/17 10:00:17;;;;;;;1.83;0.47;;;;;;;11.81;55.41;94742.00;5056915;28;20220;-78
2021/05/17 10:02:45;;;;;;;1.10;0.30;;;;;;;11.80;56.04;94740.38;5058795;28;20757;-78
2021/05/17 10:05:30;;;;;;;2.10;0.50;;;;;;;11.60;57.01;94740.81;5049191;28;20199;-78
2021/05/17 10:08:00;;;;;;;2.20;0.60;;;;;;;11.80;57.80;94735.97;5064692;28;20262;-78
2021/05/17 10:10:28;;;;;;;1.83;0.50;;;;;;;11.82;55.18;94744.41;5056741;28;20209;-79
2021/05/17 10:12:55;;;;;;;0.30;0.27;;;;;;;12.19;54.25;94732.38;5054911;28;20300;-79
2021/05/17 10:15:22;;;;;;;1.07;0.30;;;;;;;12.60;54.08;94738.00;5058465;28;20260;-79
2021/05/17 10:17:47;;;;;;;1.13;0.50;;;;;;;12.39;54.81;94737.91;5064580;28;20272;-79
2021/05/17 10:20:20;;;;;;;3.50;0.60;;;;;;;12.61;53.95;94731.78;5039814;28;20787;-79
2021/05/17 10:22:46;;;;;;;2.50;0.50;;;;;;;12.51;53.84;94733.88;5078034;28;20209;-79
2021/05/17 10:25:13;;;;;;;1.40;0.50;;;;;;;12.01;55.42;94731.91;5059238;28;20183;-79
2021/05/17 10:27:44;;;;;;;0.70;0.40;;;;;;;11.70;56.04;94729.38;5064349;28;20181;-76
2021/05/17 10:30:10;;;;;;;4.27;0.60;;;;;;;11.75;55.93;94727.03;5065404;28;20227;-78
2021/05/17 10:33:01;;;;;;;0.87;0.30;;;;;;;11.52;55.54;94743.47;5065809;28;21017;-78
2021/05/17 10:35:32;;;;;;;1.43;0.50;;;;;;;11.63;56.25;94745.66;5041895;28;20594;-76
2021/05/17 10:38:21;;;;;;;0.40;0.30;;;;;;;11.68;56.85;94741.75;5066019;28;20181;-78
2021/05/17 10:40:50;;;;;;;0.87;0.40;;;;;;;11.87;56.15;94743.91;5055966;28;20189;-78
2021/05/17 10:43:49;;;;;;;2.40;0.80;;;;;;;11.68;57.64;94749.53;5047093;28;20224;-79
2021/05/17 10:49:20;;;;;;;1.90;0.53;;;;;;;11.24;58.91;94757.94;5058844;28;20254;-78
2021/05/17 10:51:46;;;;;;;0.67;0.60;;;;;;;11.27;58.54;94744.59;5069969;28;20216;-77
2021/05/17 10:54:22;;;;;;;0.70;0.40;;;;;;;11.21;59.48;94761.66;5051848;28;20189;-76
2021/05/17 10:56:55;;;;;;;1.93;0.50;;;;;;;11.00;61.77;94770.06;5052148;28;20177;-78
2021/05/17 11:02:28;;;;;;;6.83;1.87;;;;;;;10.42;65.73;94763.44;5065277;28;20216;-77
2021/05/17 11:04:59;;;;;;;2.60;0.93;;;;;;;10.28;66.87;94773.69;5053196;28;20207;-77
2021/05/17 11:07:48;;;;;;;1.57;0.60;;;;;;;10.28;67.44;94784.06;5072648;28;20249;-77
2021/05/17 11:10:23;;;;;;;2.37;1.00;;;;;;;10.19;68.81;94788.41;5066589;28;20185;-78
2021/05/17 11:12:51;;;;;;;4.03;2.23;;;;;;;10.55;68.28;94790.66;5066543;28;20225;-77
2021/05/17 11:15:20;;;;;;;2.23;1.00;;;;;;;10.66;67.99;94787.72;5060199;28;20181;-78
2021/05/17 11:17:51;;;;;;;7.30;3.83;;;;;;;11.14;68.26;94786.75;5052537;28;20185;-75
2021/05/17 11:23:32;;;;;;;2.40;0.70;;;;;;;11.70;65.77;94783.97;5060517;28;20651;-78
2021/05/17 11:26:01;;;;;;;5.17;3.40;;;;;;;12.30;65.65;94776.22;5056700;28;20186;-78
2021/05/17 11:28:39;;;;;;;2.33;1.87;;;;;;;12.03;62.81;94777.59;5067716;28;20645;-77
2021/05/17 11:31:13;;;;;;;0.80;0.33;;;;;;;12.23;64.90;94769.28;5065725;28;20229;-76
2021/05/17 11:34:03;;;;;;;1.23;1.10;;;;;;;12.24;64.46;94774.31;5058295;28;20181;-76
2021/05/17 11:36:46;;;;;;;1.13;0.43;;;;;;;12.19;64.45;94766.22;5063726;28;20180;-76
2021/05/17 11:39:22;;;;;;;5.33;2.93;;;;;;;12.84;63.76;94772.59;5061678;28;20181;-76
2021/05/17 11:41:50;;;;;;;13.87;9.47;;;;;;;13.27;59.21;94752.72;5071847;28;20576;-77
2021/05/17 11:44:37;;;;;;;0.80;0.70;;;;;;;12.97;57.66;94765.75;5069054;28;20196;-77
2021/05/17 11:47:09;;;;;;;2.13;1.27;;;;;;;13.29;56.03;94759.34;5063667;28;20173;-76
2021/05/17 11:49:38;;;;;;;0.77;0.40;;;;;;;13.05;56.75;94755.22;5064875;28;20209;-77
2021/05/17 11:52:07;;;;;;;0.40;0.27;;;;;;;12.98;56.14;94759.53;5061848;28;20201;-77
2021/05/17 11:54:36;;;;;;;2.03;0.40;;;;;;;13.39;56.06;94755.63;5042286;28;20267;-77
2021/05/17 11:57:03;;;;;;;0.27;0.20;;;;;;;13.26;55.67;94759.72;5040197;28;20243;-77
2021/05/17 11:59:30;;;;;;;0.53;0.33;;;;;;;13.70;54.39;94758.78;5062970;28;20708;-76
2021/05/17 12:02:00;;;;;;;1.83;1.20;;;;;;;13.83;53.71;94761.50;5072010;28;20255;-77
2021/05/17 12:04:34;;;;;;;1.30;1.20;;;;;;;13.47;52.37;94765.97;5056778;28;20170;-76
2021/05/17 12:07:20;;;;;;;0.40;0.20;;;;;;;13.49;52.37;94756.97;5069458;28;20223;-76
2021/05/17 12:09:50;;;;;;;3.53;2.80;;;;;;;13.79;53.69;94756.88;5067054;28;20221;-77
2021/05/17 12:12:20;;;;;;;3.30;3.10;;;;;;;14.38;51.87;94759.97;5070078;28;20235;-77
2021/05/17 12:14:47;;;;;;;3.77;3.47;;;;;;;14.57;51.47;94757.72;5042520;28;20222;-77